Time;durP1;ratioP1;P1;durP2;ratioP2;P2;SDS_P1;SDS_P2;PMS_P1;PMS_P2;Temp;Humidity;BMP_temperature;BMP_pressure;BME280_temperature;BME280_humidity;BME280_pressure;Samples;Min_cycle;Max_cycle;Signal;HPM_P1;HPM_P2
2022/01/06 00:00:25;;;;;;;24.65;3.65;;;;;;;1.73;98.54;101538.28;5077549;28;20384;-90
2022/01/06 00:02:51;;;;;;;15.93;3.10;;;;;;;1.77;98.37;101550.13;5079423;28;20032;-90
2022/01/06 00:05:16;;;;;;;20.33;3.63;;;;;;;1.74;98.63;101555.22;5076877;28;20190;-88
2022/01/06 00:07:41;;;;;;;25.85;4.25;;;;;;;1.74;98.40;101557.78;5076049;28;20036;-90
2022/01/06 00:10:11;;;;;;;19.77;3.72;;;;;;;1.38;98.40;101505.72;5075692;28;20395;-89
2022/01/06 00:13:01;;;;;;;18.90;3.58;;;;;;;1.70;98.38;101561.25;5075542;28;20048;-89
2022/01/06 00:15:34;;;;;;;23.60;3.92;;;;;;;1.65;98.61;101566.38;5076993;28;20199;-86
2022/01/06 00:25:37;;;;;;;21.10;3.30;;;;;;;1.41;99.40;101564.19;5076712;28;20064;-77
2022/01/06 00:28:03;;;;;;;21.15;2.95;;;;;;;1.43;99.33;101578.56;5077395;28;20102;-89
2022/01/06 00:30:28;;;;;;;21.75;4.63;;;;;;;1.39;99.46;101574.41;5078515;28;20050;-90
2022/01/06 00:32:54;;;;;;;14.88;3.13;;;;;;;1.25;99.16;101572.88;5077979;28;20067;-88
2022/01/06 00:35:20;;;;;;;19.02;3.50;;;;;;;1.01;99.62;101533.34;5077721;28;20033;-88
2022/01/06 00:37:46;;;;;;;18.70;3.40;;;;;;;1.06;99.69;101554.44;5077284;28;20021;-89
2022/01/06 00:40:11;;;;;;;16.48;3.13;;;;;;;0.99;99.54;101561.34;5076876;28;20027;-84
2022/01/06 00:42:41;;;;;;;18.27;3.40;;;;;;;0.90;99.74;101548.72;5076961;28;20036;-83
2022/01/06 00:45:07;;;;;;;23.73;4.18;;;;;;;1.22;100.00;101593.28;5058251;28;20035;-76
2022/01/06 00:47:33;;;;;;;23.98;4.28;;;;;;;0.77;100.00;101514.09;5076949;28;20380;-80
2022/01/06 00:49:58;;;;;;;17.00;3.67;;;;;;;1.26;100.00;101592.38;5077997;28;20040;-86
2022/01/06 00:52:23;;;;;;;19.67;3.95;;;;;;;1.29;100.00;101592.34;5076613;28;20032;-76
2022/01/06 00:54:49;;;;;;;22.75;3.83;;;;;;;1.33;100.00;101594.81;5077026;28;20021;-87
2022/01/06 00:57:14;;;;;;;25.63;4.57;;;;;;;1.34;100.00;101593.97;5077119;28;20391;-85
2022/01/06 00:59:39;;;;;;;19.73;4.68;;;;;;;1.40;100.00;101596.44;5076657;28;20047;-87
2022/01/06 01:02:04;;;;;;;22.95;4.18;;;;;;;1.37;100.00;101587.97;5077591;28;20032;-83
2022/01/06 01:04:30;;;;;;;25.83;4.22;;;;;;;1.34;100.00;101593.13;5078223;28;20029;-89
2022/01/06 01:06:55;;;;;;;18.98;3.85;;;;;;;1.30;100.00;101589.78;5077513;28;20424;-78
2022/01/06 01:09:21;;;;;;;25.70;4.07;;;;;;;1.20;100.00;101572.09;5077465;28;20029;-88
2022/01/06 01:11:46;;;;;;;22.05;4.15;;;;;;;1.26;100.00;101588.13;5078902;28;20039;-89
2022/01/06 01:14:19;;;;;;;17.80;4.53;;;;;;;1.23;100.00;101585.63;5059296;28;20037;-89
2022/01/06 01:16:58;;;;;;;21.00;3.88;;;;;;;1.22;100.00;101591.56;5079143;28;20020;-89
2022/01/06 01:19:24;;;;;;;20.25;4.80;;;;;;;1.16;99.74;101584.00;5078358;28;20051;-90
2022/01/06 01:21:50;;;;;;;19.63;3.80;;;;;;;1.17;99.89;101592.47;5077392;28;20028;-84
2022/01/06 01:24:16;;;;;;;24.60;3.67;;;;;;;1.13;99.83;101601.84;5076258;28;20052;-81
2022/01/06 01:26:41;;;;;;;26.52;4.50;;;;;;;1.11;100.00;101595.94;5080011;28;20028;-86
2022/01/06 01:29:15;;;;;;;23.05;3.85;;;;;;;0.88;100.00;101567.38;5080322;28;20044;-87
2022/01/06 01:31:50;;;;;;;16.50;3.97;;;;;;;1.03;100.00;101600.28;5082459;28;20067;-91
2022/01/06 01:34:22;;;;;;;20.42;4.00;;;;;;;0.97;100.00;101607.97;5082605;28;20029;-81
2022/01/06 01:36:48;;;;;;;22.38;4.50;;;;;;;0.86;100.00;101598.75;5064153;28;20033;-88
2022/01/06 01:39:14;;;;;;;26.17;4.28;;;;;;;0.58;100.00;101561.75;5080315;28;20416;-80
2022/01/06 01:41:39;;;;;;;24.23;5.82;;;;;;;0.87;100.00;101627.56;5077394;28;20023;-76
2022/01/06 01:44:12;;;;;;;17.83;4.15;;;;;;;0.58;100.00;101580.38;5081363;28;20024;-80
2022/01/06 01:46:43;;;;;;;28.73;5.05;;;;;;;0.34;100.00;101562.00;5081725;28;20377;-90
2022/01/06 01:51:51;;;;;;;23.05;4.15;;;;;;;0.64;100.00;101637.97;5080037;28;20028;-85
2022/01/06 01:54:16;;;;;;;19.75;5.63;;;;;;;0.64;100.00;101645.59;5079380;28;20036;-88
2022/01/06 01:56:43;;;;;;;21.67;4.75;;;;;;;0.44;100.00;101615.25;5078266;28;20021;-80
2022/01/06 01:59:08;;;;;;;20.60;3.90;;;;;;;0.63;100.00;101653.22;5061699;28;20089;-85
2022/01/06 02:01:33;;;;;;;24.63;4.93;;;;;;;0.48;100.00;101639.78;5080065;28;20030;-82
2022/01/06 02:03:59;;;;;;;19.35;4.10;;;;;;;0.43;100.00;101641.53;5080591;28;20020;-86
2022/01/06 02:06:24;;;;;;;20.23;4.75;;;;;;;0.58;100.00;101664.25;5080999;28;20032;-86
2022/01/06 02:08:51;;;;;;;22.48;4.53;;;;;;;0.36;100.00;101639.88;5081364;28;20016;-88
2022/01/06 02:11:17;;;;;;;21.65;4.13;;;;;;;0.47;100.00;101653.34;5079796;28;20074;-86
2022/01/06 02:13:53;;;;;;;19.70;5.15;;;;;;;0.52;100.00;101668.56;5045584;28;20023;-88
2022/01/06 02:16:24;;;;;;;21.52;5.20;;;;;;;0.38;100.00;101647.50;5077813;28;20028;-85
2022/01/06 02:18:50;;;;;;;;;;;;;;;0.53;100.00;101675.34;5078209;28;20036;-78
2022/01/06 02:21:16;;;;;;;21.23;4.47;;;;;;;0.50;100.00;101671.13;5078901;28;19908;-84
2022/01/06 02:23:41;;;;;;;21.33;4.70;;;;;;;0.47;100.00;101680.44;5078956;28;20052;-88
2022/01/06 02:26:07;;;;;;;15.65;3.95;;;;;;;0.31;100.00;101661.13;5078970;28;20028;-78
2022/01/06 02:28:32;;;;;;;15.40;4.35;;;;;;;0.08;100.00;101618.91;5076520;28;20109;-76
2022/01/06 02:30:58;;;;;;;18.38;4.00;;;;;;;0.15;100.00;101653.59;5076975;28;20115;-75
2022/01/06 02:33:24;;;;;;;22.30;4.47;;;;;;;0.21;100.00;101666.25;5077373;28;20035;-80
2022/01/06 02:35:54;;;;;;;17.50;5.00;;;;;;;0.14;100.00;101669.69;5076970;28;20024;-76
2022/01/06 02:38:20;;;;;;;17.85;4.43;;;;;;;0.18;100.00;101686.56;5077275;28;20021;-78
2022/01/06 02:40:46;;;;;;;13.05;3.78;;;;;;;-0.17;100.00;101638.56;5075993;28;20031;-79
2022/01/06 02:43:14;;;;;;;14.93;3.80;;;;;;;0.03;100.00;101683.31;5041963;28;20501;-78
2022/01/06 02:45:40;;;;;;;18.45;4.72;;;;;;;-0.05;100.00;101674.03;5076202;28;20024;-80
2022/01/06 02:48:08;;;;;;;23.08;4.35;;;;;;;-0.03;100.00;101676.56;5075676;28;20025;-76
2022/01/06 02:50:45;;;;;;;19.25;4.18;;;;;;;-0.19;100.00;101660.56;5075194;28;20464;-77
2022/01/06 02:53:12;;;;;;;18.35;4.20;;;;;;;-0.39;100.00;101621.78;5075022;28;20025;-77
2022/01/06 02:55:41;;;;;;;20.88;4.85;;;;;;;-0.45;100.00;101626.88;5074820;28;20025;-76
2022/01/06 02:58:06;;;;;;;16.83;3.88;;;;;;;-0.12;100.00;101672.38;5074690;28;20056;-79
2022/01/06 03:00:35;;;;;;;24.80;4.38;;;;;;;-0.11;100.00;101674.03;5074642;28;20113;-77
2022/01/06 03:03:00;;;;;;;19.08;4.93;;;;;;;-0.49;100.00;101615.91;5074844;28;20035;-76
2022/01/06 03:05:29;;;;;;;22.55;4.30;;;;;;;-0.15;100.00;101674.09;5074393;28;20488;-78
2022/01/06 03:07:54;;;;;;;14.38;3.97;;;;;;;-0.24;100.00;101674.97;5074551;28;20025;-83
2022/01/06 03:10:19;;;;;;;18.08;3.55;;;;;;;-0.33;100.00;101662.31;5075047;28;20032;-82
2022/01/06 03:12:47;;;;;;;19.23;4.20;;;;;;;-0.57;100.00;101625.22;5074233;28;20024;-80
2022/01/06 03:15:18;;;;;;;18.50;4.18;;;;;;;-0.28;100.00;101680.09;5074248;28;20064;-87
2022/01/06 03:17:47;;;;;;;14.75;4.10;;;;;;;-0.23;100.00;101693.59;5056347;28;20385;-81
2022/01/06 03:20:14;;;;;;;17.45;4.50;;;;;;;-0.27;100.00;101690.22;5074294;28;20017;-87
2022/01/06 03:22:40;;;;;;;18.33;4.10;;;;;;;-0.23;100.00;101699.50;5074436;28;20025;-89
2022/01/06 03:25:08;;;;;;;20.27;4.20;;;;;;;-0.63;100.00;101646.38;5074204;28;20077;-91
2022/01/06 03:27:33;;;;;;;20.80;4.25;;;;;;;-0.21;100.00;101715.56;5074097;28;20048;-83
2022/01/06 03:29:59;;;;;;;24.40;4.78;;;;;;;-0.42;100.00;101669.97;5073736;28;20076;-85
2022/01/06 03:32:24;;;;;;;18.95;4.20;;;;;;;-0.20;100.00;101704.56;5074261;28;20059;-89
2022/01/06 03:34:50;;;;;;;21.52;4.18;;;;;;;-0.06;100.00;101714.66;5055875;28;20040;-82
2022/01/06 03:37:16;;;;;;;24.33;5.13;;;;;;;-0.15;100.00;101684.25;5074150;28;20472;-88
2022/01/06 03:39:43;;;;;;;29.48;4.55;;;;;;;-0.37;100.00;101625.97;5074089;28;20487;-86
2022/01/06 03:42:09;;;;;;;21.30;4.15;;;;;;;0.14;100.00;101706.94;5074121;28;20516;-91
2022/01/06 03:44:34;;;;;;;24.25;4.85;;;;;;;0.16;100.00;101700.97;5073968;28;20036;-91
2022/01/06 03:47:00;;;;;;;24.80;4.72;;;;;;;0.18;100.00;101706.06;5074406;28;20121;-77
2022/01/06 03:49:25;;;;;;;19.45;4.53;;;;;;;0.03;100.00;101678.22;5073023;28;20085;-87
2022/01/06 03:51:51;;;;;;;27.30;4.35;;;;;;;0.00;100.00;101674.03;5074029;28;20017;-88
2022/01/06 03:54:16;;;;;;;21.85;4.40;;;;;;;0.24;100.00;101714.50;5073661;28;20112;-89
2022/01/06 03:56:48;;;;;;;20.58;4.57;;;;;;;0.14;100.00;101692.53;5073694;28;20021;-85
2022/01/06 03:59:13;;;;;;;26.25;3.97;;;;;;;0.21;100.00;101704.34;5073647;28;20066;-79
2022/01/06 04:01:39;;;;;;;23.05;3.97;;;;;;;0.09;100.00;101689.16;5073833;28;20021;-91
2022/01/06 04:04:04;;;;;;;24.38;3.95;;;;;;;0.02;100.00;101689.25;5073815;28;20032;-88
2022/01/06 04:06:30;;;;;;;23.27;2.95;;;;;;;0.11;100.00;101712.03;5073729;28;20375;-89
2022/01/06 04:08:55;;;;;;;19.75;3.70;;;;;;;-0.12;100.00;101687.59;5072660;28;20415;-88
2022/01/06 04:11:20;;;;;;;21.02;3.17;;;;;;;-0.45;100.00;101640.41;5073582;28;20127;-87
2022/01/06 04:13:46;;;;;;;16.88;3.22;;;;;;;-0.14;100.00;101708.78;5073381;28;20035;-83
2022/01/06 04:16:14;;;;;;;16.38;3.20;;;;;;;-0.30;100.00;101677.53;5073219;28;20116;-89
2022/01/06 04:18:40;;;;;;;13.02;2.53;;;;;;;-0.31;100.00;101689.38;5073540;28;20020;-85
2022/01/06 04:21:07;;;;;;;14.52;2.70;;;;;;;-0.45;100.00;101672.53;5073690;28;20112;-90
2022/01/06 04:23:33;;;;;;;16.17;3.20;;;;;;;-0.13;100.00;101736.69;5073113;28;20060;-92
2022/01/06 04:25:58;;;;;;;14.75;3.47;;;;;;;-0.24;100.00;101712.19;5073283;28;20447;-89
2022/01/06 04:28:24;;;;;;;17.27;3.20;;;;;;;-0.36;100.00;101702.94;5072650;28;20075;-87
2022/01/06 04:30:50;;;;;;;17.80;2.67;;;;;;;-0.14;100.00;101741.78;5072895;28;20442;-76
2022/01/06 04:33:15;;;;;;;18.80;2.95;;;;;;;-0.16;100.00;101740.94;5055033;28;20032;-82
2022/01/06 04:35:40;;;;;;;18.15;3.17;;;;;;;-0.18;100.00;101729.97;5072968;28;20021;-91
2022/01/06 04:38:06;;;;;;;20.15;3.30;;;;;;;-0.16;100.00;101735.88;5073132;28;20163;-90
2022/01/06 04:40:31;;;;;;;17.98;3.97;;;;;;;-0.18;100.00;101735.88;5073398;28;20016;-85
2022/01/06 04:42:56;;;;;;;20.70;3.65;;;;;;;-0.21;100.00;101740.09;5072916;28;20514;-87
2022/01/06 04:45:22;;;;;;;17.15;3.15;;;;;;;-0.24;100.00;101748.56;5072855;28;20162;-82
2022/01/06 04:47:47;;;;;;;18.08;3.53;;;;;;;-0.21;100.00;101756.16;5072972;28;20365;-88
2022/01/06 04:50:13;;;;;;;20.55;4.53;;;;;;;-0.20;100.00;101744.31;5072994;28;20451;-87
2022/01/06 04:52:38;;;;;;;19.88;4.45;;;;;;;-0.19;100.00;101746.03;5072987;28;20012;-87
2022/01/06 04:55:05;;;;;;;23.60;3.45;;;;;;;-0.17;100.00;101757.88;5072841;28;20406;-86
2022/01/06 04:57:30;;;;;;;19.40;3.95;;;;;;;-0.18;100.00;101751.09;5072828;28;20098;-87
2022/01/06 04:59:56;;;;;;;18.02;4.07;;;;;;;-0.31;100.00;101742.66;5072616;28;20111;-90
2022/01/06 05:02:21;;;;;;;19.83;4.25;;;;;;;-0.40;100.00;101727.47;5072594;28;20024;-90
2022/01/06 05:04:46;;;;;;;19.02;3.80;;;;;;;-0.57;100.00;101711.47;5072732;28;20025;-90
2022/01/06 05:07:12;;;;;;;20.67;4.95;;;;;;;-0.31;100.00;101762.13;5073158;28;20024;-83
2022/01/06 05:09:37;;;;;;;20.73;4.28;;;;;;;-0.36;100.00;101772.31;5054641;28;20150;-87
2022/01/06 05:12:03;;;;;;;19.33;3.90;;;;;;;-0.51;100.00;101751.19;5072737;28;20025;-89
2022/01/06 05:14:28;;;;;;;18.70;3.63;;;;;;;-0.61;100.00;101742.75;5072524;28;20028;-89
2022/01/06 05:16:56;;;;;;;19.33;3.85;;;;;;;-0.77;100.00;101728.44;5072577;28;20027;-79
2022/01/06 05:19:24;;;;;;;17.27;3.75;;;;;;;-0.53;100.00;101781.66;5072400;28;20037;-81
2022/01/06 05:21:51;;;;;;;18.77;4.00;;;;;;;-0.60;100.00;101785.03;5072468;28;20032;-84
2022/01/06 05:24:18;;;;;;;18.52;3.83;;;;;;;-0.66;100.00;101778.28;5054450;28;20047;-82
2022/01/06 05:26:43;;;;;;;16.73;3.70;;;;;;;-0.70;100.00;101775.75;5072455;28;20383;-76
2022/01/06 05:29:10;;;;;;;13.00;3.38;;;;;;;-0.76;100.00;101784.22;5072098;28;20112;-76
2022/01/06 05:31:36;;;;;;;19.88;4.13;;;;;;;-1.05;100.00;101740.31;5072282;28;20025;-85
2022/01/06 05:34:02;;;;;;;15.07;3.35;;;;;;;-0.82;100.00;101790.97;5072125;28;20035;-78
2022/01/06 05:36:27;;;;;;;15.77;3.80;;;;;;;-0.87;100.00;101791.00;5072276;28;20545;-89
2022/01/06 05:38:53;;;;;;;19.70;3.95;;;;;;;-0.89;100.00;101797.75;5072434;28;20100;-86
2022/01/06 05:41:19;;;;;;;13.90;2.70;;;;;;;-1.46;100.00;101715.81;5072238;28;20387;-91
2022/01/06 05:43:44;;;;;;;10.25;3.40;;;;;;;-1.14;100.00;101779.16;5071982;28;20142;-89
2022/01/06 05:46:10;;;;;;;13.40;3.80;;;;;;;-1.03;100.00;101802.81;5072227;28;20094;-88
2022/01/06 05:48:35;;;;;;;12.70;2.85;;;;;;;-1.07;100.00;101808.75;5054117;28;20126;-87
2022/01/06 05:51:00;;;;;;;16.63;3.78;;;;;;;-1.24;100.00;101780.00;5072386;28;20353;-85
2022/01/06 05:53:26;;;;;;;11.02;3.60;;;;;;;-1.21;100.00;101797.72;5072063;28;20068;-84
2022/01/06 05:55:51;;;;;;;15.63;4.30;;;;;;;-1.21;100.00;101812.94;5071987;28;20118;-84
2022/01/06 05:58:16;;;;;;;13.77;3.50;;;;;;;-1.21;100.00;101812.94;5072246;28;20116;-81
2022/01/06 06:00:42;;;;;;;22.15;4.28;;;;;;;-1.21;100.00;101818.84;5071768;28;20035;-86
2022/01/06 06:03:08;;;;;;;15.15;3.92;;;;;;;-1.19;100.00;101817.16;5071887;28;20029;-86
2022/01/06 06:05:33;;;;;;;15.82;3.60;;;;;;;-1.32;100.00;101804.47;5071840;28;20040;-82
2022/01/06 06:07:59;;;;;;;16.35;3.70;;;;;;;-1.25;100.00;101824.78;5072088;28;20040;-90
2022/01/06 06:10:24;;;;;;;14.80;3.72;;;;;;;-1.24;100.00;101823.94;5071970;28;20112;-87
2022/01/06 06:12:52;;;;;;;16.27;3.80;;;;;;;-1.42;100.00;101802.78;5074636;28;20039;-86
2022/01/06 06:15:21;;;;;;;16.75;4.03;;;;;;;-1.23;100.00;101833.22;5075234;28;20090;-89
2022/01/06 06:17:47;;;;;;;21.33;4.72;;;;;;;-1.19;100.00;101834.06;5075349;28;20029;-88
2022/01/06 06:20:12;;;;;;;19.58;3.80;;;;;;;-1.17;100.00;101845.91;5075494;28;20031;-86
2022/01/06 06:22:38;;;;;;;17.13;3.78;;;;;;;-1.35;100.00;101812.94;5075786;28;20028;-80
2022/01/06 06:25:04;;;;;;;20.80;4.10;;;;;;;-1.37;100.00;101806.19;5075181;28;20029;-79
2022/01/06 06:27:30;;;;;;;19.67;4.47;;;;;;;-1.14;100.00;101842.53;5075343;28;20032;-87
2022/01/06 06:29:55;;;;;;;17.75;5.00;;;;;;;-1.36;100.00;101813.78;5075044;28;20045;-87
2022/01/06 06:32:21;;;;;;;15.40;3.92;;;;;;;-1.18;100.00;101848.41;5075251;28;20029;-85
2022/01/06 06:34:46;;;;;;;21.25;4.13;;;;;;;-1.24;100.00;101851.81;5075101;28;20028;-85
2022/01/06 06:37:11;;;;;;;17.10;4.03;;;;;;;-1.23;100.00;101857.72;5075225;28;20037;-89
2022/01/06 06:39:36;;;;;;;16.77;3.88;;;;;;;-1.37;100.00;101828.97;5056645;28;20036;-77
2022/01/06 06:42:02;;;;;;;18.88;4.28;;;;;;;-1.40;100.00;101824.72;5075299;28;20078;-86
2022/01/06 06:44:27;;;;;;;12.70;3.65;;;;;;;-1.28;100.00;101855.19;5074820;28;20024;-87
2022/01/06 06:46:53;;;;;;;17.35;3.88;;;;;;;-1.38;100.00;101847.53;5074677;28;20027;-90
2022/01/06 06:49:18;;;;;;;15.02;3.47;;;;;;;-1.30;100.00;101866.13;5074773;28;20025;-76
2022/01/06 06:51:44;;;;;;;15.30;3.08;;;;;;;-1.33;100.00;101874.59;5074612;28;20024;-88
2022/01/06 06:54:09;;;;;;;18.83;4.55;;;;;;;-1.53;100.00;101833.16;5074800;28;20021;-80
2022/01/06 06:56:35;;;;;;;16.75;5.25;;;;;;;-1.46;100.00;101855.13;5057117;28;20031;-78
2022/01/06 06:59:00;;;;;;;13.73;4.15;;;;;;;-1.57;100.00;101842.44;5074765;28;20353;-89
2022/01/06 07:01:25;;;;;;;19.02;4.20;;;;;;;-1.55;100.00;101850.03;5074131;28;20025;-81
2022/01/06 07:03:51;;;;;;;16.65;4.00;;;;;;;-1.93;100.00;101795.03;5056729;28;20047;-79
2022/01/06 07:06:16;;;;;;;15.02;4.18;;;;;;;-1.46;100.00;101881.31;5074431;28;20066;-90
2022/01/06 07:08:41;;;;;;;19.40;4.47;;;;;;;-1.84;100.00;101820.38;5056464;28;20466;-83
2022/01/06 07:11:07;;;;;;;16.05;4.80;;;;;;;-1.50;100.00;101892.25;5074470;28;20056;-90
2022/01/06 07:13:32;;;;;;;13.55;4.22;;;;;;;-1.50;100.00;101888.88;5074346;28;20028;-92
2022/01/06 07:15:57;;;;;;;13.45;4.20;;;;;;;-1.86;100.00;101838.94;5074449;28;20039;-88
2022/01/06 07:18:23;;;;;;;17.58;4.93;;;;;;;-1.58;100.00;101898.97;5074493;28;20031;-82
2022/01/06 07:20:48;;;;;;;13.63;4.45;;;;;;;-1.63;100.00;101913.31;5074399;28;20115;-83
2022/01/06 07:23:13;;;;;;;12.70;4.10;;;;;;;-1.65;100.00;101907.41;5073246;28;20059;-89
2022/01/06 07:25:39;;;;;;;14.15;4.55;;;;;;;-1.74;100.00;101904.81;5075090;28;20025;-88
2022/01/06 07:28:05;;;;;;;13.13;4.45;;;;;;;-1.67;100.00;101913.28;5074451;28;20372;-90
2022/01/06 07:30:33;;;;;;;11.50;4.82;;;;;;;-2.33;100.00;101816.75;5073847;28;20037;-89
2022/01/06 07:32:59;;;;;;;16.77;5.57;;;;;;;-1.75;100.00;101920.84;5074127;28;20041;-85
2022/01/06 07:35:25;;;;;;;20.42;5.53;;;;;;;-2.10;100.00;101854.84;5074280;28;20021;-91
2022/01/06 07:37:51;;;;;;;13.95;5.47;;;;;;;-1.89;100.00;101894.59;5073828;28;20035;-81
2022/01/06 07:40:17;;;;;;;18.67;5.75;;;;;;;-2.10;100.00;101864.97;5073702;28;20391;-89
2022/01/06 07:42:42;;;;;;;13.82;5.15;;;;;;;-1.83;100.00;101913.22;5073372;28;20056;-76
2022/01/06 07:45:08;;;;;;;17.02;5.45;;;;;;;-1.86;100.00;101915.75;5073742;28;20036;-82
2022/01/06 07:47:43;;;;;;;12.98;4.78;;;;;;;-2.10;100.00;101864.97;5075332;28;20024;-88
2022/01/06 07:50:09;;;;;;;17.60;4.80;;;;;;;-1.85;100.00;101911.53;5073985;28;20099;-84
2022/01/06 07:52:35;;;;;;;13.63;4.95;;;;;;;-1.76;100.00;101921.69;5073961;28;20451;-91
2022/01/06 07:55:00;;;;;;;15.05;6.28;;;;;;;-1.99;100.00;101887.78;5073871;28;20093;-85
2022/01/06 07:57:25;;;;;;;17.85;5.40;;;;;;;-2.00;100.00;101884.41;5073866;28;20032;-90
2022/01/06 07:59:51;;;;;;;16.95;5.35;;;;;;;-1.76;100.00;101922.53;5073810;28;20025;-91
2022/01/06 08:02:16;;;;;;;18.85;5.80;;;;;;;-1.77;100.00;101918.31;5073667;28;20476;-90
2022/01/06 08:04:42;;;;;;;13.55;5.40;;;;;;;-2.13;100.00;101867.47;5073944;28;20106;-83
2022/01/06 08:07:08;;;;;;;16.63;5.82;;;;;;;-1.97;100.00;101892.03;5073577;28;20029;-91
2022/01/06 08:09:33;;;;;;;15.82;6.10;;;;;;;-1.75;100.00;101929.28;5073478;28;20390;-91
2022/01/06 08:11:58;;;;;;;15.45;5.85;;;;;;;-1.74;100.00;101930.16;5074099;28;20026;-90
2022/01/06 08:14:27;;;;;;;15.18;6.28;;;;;;;-1.83;100.00;101919.97;5073355;28;20059;-89
2022/01/06 08:16:52;;;;;;;21.25;7.07;;;;;;;-1.70;100.00;101936.06;5073429;28;20024;-91
2022/01/06 08:19:18;;;;;;;18.70;6.18;;;;;;;-1.89;100.00;101904.72;5073038;28;20028;-90
2022/01/06 08:21:44;;;;;;;21.15;7.93;;;;;;;-1.74;100.00;101931.00;5072783;28;20044;-90
2022/01/06 08:24:10;;;;;;;18.23;7.22;;;;;;;-1.84;100.00;101900.56;5073140;28;20028;-90
2022/01/06 08:26:35;;;;;;;21.35;7.72;;;;;;;-1.61;100.00;101939.47;5073104;28;20082;-85
2022/01/06 08:29:00;;;;;;;23.00;8.85;;;;;;;-1.81;100.00;101905.63;5072736;28;20055;-89
2022/01/06 08:31:26;;;;;;;24.45;9.38;;;;;;;-1.75;100.00;101910.72;5072873;28;20071;-91
2022/01/06 08:33:51;;;;;;;22.70;9.43;;;;;;;-1.55;100.00;101944.59;5072413;28;20028;-92
2022/01/06 08:36:16;;;;;;;21.60;9.13;;;;;;;-1.61;100.00;101925.97;5073627;28;20433;-88
2022/01/06 08:38:42;;;;;;;21.55;9.43;;;;;;;-1.77;100.00;101899.72;5073032;28;20021;-90
2022/01/06 08:41:08;;;;;;;28.88;11.63;;;;;;;-1.44;100.00;101942.09;5073211;28;20196;-89
2022/01/06 08:43:34;;;;;;;27.42;12.18;;;;;;;-1.31;100.00;101943.84;5073066;28;20048;-87
2022/01/06 08:45:59;;;;;;;30.98;12.52;;;;;;;-1.21;100.00;101944.72;5072830;28;20460;-85
2022/01/06 08:48:57;;;;;;;27.67;12.57;;;;;;;-1.51;100.00;101890.56;5072365;28;20501;-80
2022/01/06 08:51:23;;;;;;;36.17;12.63;;;;;;;-0.97;100.00;101962.56;5010533;28;20326;-84
2022/01/06 08:53:50;;;;;;;33.92;12.45;;;;;;;-0.90;100.00;101960.84;5010680;28;20037;-88
2022/01/06 08:56:16;;;;;;;30.40;12.63;;;;;;;-0.82;100.00;101955.81;5010571;28;20445;-84
2022/01/06 08:58:41;;;;;;;30.73;12.73;;;;;;;-0.86;100.00;101944.81;5010825;28;20034;-86
2022/01/06 09:01:06;;;;;;;28.95;12.10;;;;;;;-0.74;100.00;101960.06;5010587;28;20042;-79
2022/01/06 09:03:32;;;;;;;25.98;12.30;;;;;;;-0.69;100.00;101960.94;5010289;28;20064;-81
2022/01/06 09:05:57;;;;;;;37.13;12.55;;;;;;;-0.64;100.00;101964.31;5010495;28;20040;-83
2022/01/06 09:08:25;;;;;;;30.75;11.85;;;;;;;-0.73;100.00;101944.00;5010803;28;20057;-85
2022/01/06 09:10:50;;;;;;;36.22;11.80;;;;;;;-0.83;100.00;101922.00;5010634;28;20053;-86
2022/01/06 09:13:15;;;;;;;26.42;12.88;;;;;;;-0.51;100.00;101975.31;5010680;28;20038;-85
2022/01/06 09:15:41;;;;;;;32.97;12.68;;;;;;;-0.44;100.00;101973.63;5010611;28;20042;-82
2022/01/06 09:18:07;;;;;;;29.10;12.63;;;;;;;-1.19;100.00;101839.13;5010301;28;20042;-84
2022/01/06 09:20:33;;;;;;;33.47;11.57;;;;;;;-0.33;100.00;101974.47;5010328;28;20129;-84
2022/01/06 09:22:58;;;;;;;34.47;11.93;;;;;;;-0.61;100.00;101925.41;4994048;28;20064;-79
2022/01/06 09:25:26;;;;;;;28.65;11.77;;;;;;;-0.95;100.00;101856.91;5010383;28;20037;-85
2022/01/06 09:27:55;;;;;;;30.15;11.10;;;;;;;-1.23;100.00;101817.16;5034344;28;20037;-83
2022/01/06 09:30:26;;;;;;;28.33;10.60;;;;;;;-0.18;100.00;101982.09;5072187;28;20044;-81
2022/01/06 09:33:03;;;;;;;30.05;11.30;;;;;;;-1.12;100.00;101824.78;5053363;28;20186;-85
2022/01/06 09:35:31;;;;;;;23.48;10.80;;;;;;;-0.20;100.00;101975.31;5072130;28;20036;-87
2022/01/06 09:37:57;;;;;;;23.73;11.35;;;;;;;-0.64;100.00;101902.56;5072199;28;20085;-79
2022/01/06 09:40:31;;;;;;;27.23;11.82;;;;;;;-0.94;100.00;101855.22;5072271;28;20028;-84
2022/01/06 09:42:56;;;;;;;30.55;12.65;;;;;;;0.00;100.00;102006.66;5105180;23;20044;-81
2022/01/06 09:45:27;;;;;;;26.80;11.63;;;;;;;-0.10;100.00;101982.97;5051967;28;20452;-82
2022/01/06 09:47:53;;;;;;;27.98;10.70;;;;;;;0.10;100.00;102010.00;5054799;28;20044;-81
2022/01/06 09:50:18;;;;;;;32.92;11.30;;;;;;;-0.88;100.00;101845.09;5055440;28;20491;-81
2022/01/06 09:52:44;;;;;;;30.20;12.68;;;;;;;0.08;100.00;101997.31;5055769;28;20029;-83
2022/01/06 09:55:15;;;;;;;29.80;12.20;;;;;;;0.24;100.00;102013.38;5054361;28;20021;-82
2022/01/06 09:57:57;;;;;;;25.10;11.27;;;;;;;-0.07;100.00;101949.94;5055797;28;20021;-88
2022/01/06 10:00:24;;;;;;;29.23;12.63;;;;;;;-0.02;100.00;101952.44;5054145;28;20100;-84
2022/01/06 10:02:58;;;;;;;26.63;11.95;;;;;;;0.37;100.00;102006.59;5055453;28;20028;-86
2022/01/06 10:05:27;;;;;;;24.88;11.52;;;;;;;0.17;100.00;101966.81;5055385;28;20032;-86
2022/01/06 10:07:53;;;;;;;29.70;12.90;;;;;;;0.47;100.00;102006.56;5055324;28;20028;-88
2022/01/06 10:13:08;;;;;;;27.85;12.10;;;;;;;-0.68;100.00;101800.28;4979612;26;20523;-87
2022/01/06 10:15:46;;;;;;;30.17;12.50;;;;;;;-0.21;100.00;101862.78;5055281;28;20123;-86
2022/01/06 10:18:16;;;;;;;29.73;12.95;;;;;;;-0.37;100.00;101831.53;5055264;28;20024;-87
2022/01/06 10:20:43;;;;;;;27.15;12.65;;;;;;;0.76;100.00;102003.94;5055015;28;20097;-86
2022/01/06 10:23:15;;;;;;;29.20;14.10;;;;;;;0.79;100.00;102003.94;5055283;28;20029;-88
2022/01/06 10:25:48;;;;;;;32.03;11.93;;;;;;;0.83;100.00;102000.53;5035933;28;20025;-82
2022/01/06 10:28:22;;;;;;;29.63;13.00;;;;;;;0.90;100.00;102000.50;5035713;28;20105;-77
2022/01/06 10:30:49;;;;;;;29.23;13.07;;;;;;;0.98;100.00;101991.13;5035100;28;20070;-84
2022/01/06 10:33:20;;;;;;;33.58;14.18;;;;;;;0.85;100.00;101963.22;5034786;28;20025;-80
2022/01/06 10:35:46;;;;;;;29.40;13.63;;;;;;;1.08;100.00;101988.56;5034793;28;20028;-88
2022/01/06 10:38:12;;;;;;;28.95;12.65;;;;;;;0.87;100.00;101945.41;5016896;28;20048;-85
2022/01/06 10:40:38;;;;;;;34.88;13.30;;;;;;;1.23;100.00;101985.06;5034641;28;20021;-86
2022/01/06 10:43:05;;;;;;;28.35;12.50;;;;;;;1.30;100.00;101991.81;5034764;28;20038;-82
2022/01/06 10:45:32;;;;;;;31.15;13.23;;;;;;;1.28;100.00;101973.19;5034926;28;20087;-85
2022/01/06 10:48:01;;;;;;;31.77;13.50;;;;;;;1.47;100.00;101988.28;5016237;28;20040;-87
2022/01/06 10:50:38;;;;;;;33.58;13.90;;;;;;;1.62;100.00;101973.78;5034639;28;20040;-87
2022/01/06 10:53:06;;;;;;;30.80;13.23;;;;;;;1.83;100.00;101960.00;5034842;28;20030;-80
2022/01/06 10:55:35;;;;;;;22.25;11.43;;;;;;;2.25;100.00;101984.25;5017355;28;20033;-89
2022/01/06 10:58:03;;;;;;;27.83;10.93;;;;;;;2.46;100.00;101985.75;5034400;28;20121;-85
2022/01/06 11:00:39;;;;;;;27.63;10.10;;;;;;;2.61;100.00;101987.25;5034691;28;20041;-78
2022/01/06 11:03:09;;;;;;;27.15;9.40;;;;;;;2.67;100.00;101982.09;5034763;28;20424;-77
2022/01/06 11:05:45;;;;;;;24.15;8.63;;;;;;;2.39;100.00;101940.78;5034533;28;20381;-77
2022/01/06 11:08:12;;;;;;;24.98;7.82;;;;;;;2.55;100.00;101974.56;5034586;28;20022;-80
2022/01/06 11:10:45;;;;;;;25.17;8.32;;;;;;;2.37;100.00;101952.72;5034152;28;20100;-87
2022/01/06 11:13:11;;;;;;;18.15;7.80;;;;;;;1.78;99.93;101862.47;5018001;28;20025;-88
2022/01/06 11:15:36;;;;;;;22.67;8.02;;;;;;;2.29;99.88;101955.34;5034720;28;20033;-83
2022/01/06 11:18:04;;;;;;;20.90;8.10;;;;;;;2.02;100.00;101919.94;5034521;28;20056;-89
2022/01/06 11:20:31;;;;;;;21.58;7.90;;;;;;;2.34;100.00;101974.81;5016416;28;20033;-78
2022/01/06 11:22:58;;;;;;;23.88;8.75;;;;;;;2.15;100.00;101943.56;5034115;28;20033;-83